Time;durP1;ratioP1;P1;durP2;ratioP2;P2;SDS_P1;SDS_P2;PMS_P1;PMS_P2;Temp;Humidity;BMP_temperature;BMP_pressure;BME280_temperature;BME280_humidity;BME280_pressure;Samples;Min_cycle;Max_cycle;Signal;HPM_P1;HPM_P2
2021/08/01 00:01:48;;;;;;;26.35;14.90;;;;;;;23.73;85.33;96732.16;5006721;28;20054;-75
2021/08/01 00:04:15;;;;;;;21.00;14.15;;;;;;;23.76;84.86;96728.38;5005421;28;20065;-73
2021/08/01 00:06:42;;;;;;;29.23;15.43;;;;;;;24.03;83.74;96785.13;5006570;28;20093;-75
2021/08/01 00:09:08;;;;;;;22.80;14.82;;;;;;;24.01;84.14;96776.34;5006387;28;20081;-75
2021/08/01 00:11:35;;;;;;;23.40;14.52;;;;;;;24.11;84.12;96774.31;5005172;28;20054;-75
2021/08/01 00:14:02;;;;;;;26.98;15.45;;;;;;;23.81;83.55;96694.63;5004971;28;20065;-71
2021/08/01 00:16:29;;;;;;;19.42;14.25;;;;;;;23.64;83.15;96655.75;5006722;28;20141;-74
2021/08/01 00:18:57;;;;;;;23.35;14.05;;;;;;;24.28;81.88;96756.59;5004778;28;20061;-73
2021/08/01 00:21:24;;;;;;;21.85;13.57;;;;;;;23.61;81.95;96648.19;5005393;28;20050;-74
2021/08/01 00:23:51;;;;;;;19.60;13.50;;;;;;;23.60;82.10;96649.47;5005095;28;20058;-75
2021/08/01 00:26:18;;;;;;;18.92;12.93;;;;;;;24.04;83.25;96730.13;5006168;28;20053;-72
2021/08/01 00:28:45;;;;;;;23.52;13.77;;;;;;;23.72;84.25;96690.97;5004722;28;20094;-77
2021/08/01 00:31:12;;;;;;;20.42;13.32;;;;;;;23.22;86.57;96658.19;5004158;28;20057;-70
2021/08/01 00:33:39;;;;;;;20.35;13.20;;;;;;;23.48;86.58;96709.72;5006668;28;20487;-73
2021/08/01 00:36:06;;;;;;;21.00;14.43;;;;;;;23.05;86.38;96658.84;5004642;28;20058;-74
2021/08/01 00:38:33;;;;;;;21.95;13.23;;;;;;;23.17;87.65;96734.31;5006712;28;20134;-72
2021/08/01 00:41:01;;;;;;;21.85;13.65;;;;;;;23.13;88.73;96739.28;5004405;28;20056;-72
2021/08/01 00:43:30;;;;;;;23.67;14.20;;;;;;;23.15;88.02;96748.09;5004535;28;20077;-73
2021/08/01 00:45:58;;;;;;;25.70;13.75;;;;;;;23.21;86.76;96735.75;5004319;28;20054;-73
2021/08/01 00:48:26;;;;;;;24.48;14.05;;;;;;;23.22;86.08;96736.56;5004338;28;20053;-73
2021/08/01 00:50:54;;;;;;;23.13;14.30;;;;;;;23.29;86.01;96741.94;5004336;28;20071;-75
2021/08/01 00:53:21;;;;;;;22.95;14.50;;;;;;;23.29;86.57;96739.13;5005573;28;20558;-74
2021/08/01 00:55:48;;;;;;;23.10;15.07;;;;;;;23.42;86.34;96735.00;5004776;28;20077;-74
2021/08/01 00:58:15;;;;;;;23.58;15.70;;;;;;;23.48;85.26;96738.00;5005809;28;20049;-73
2021/08/01 01:01:08;;;;;;;24.23;14.73;;;;;;;23.47;85.46;96731.53;5004000;28;20053;-71
2021/08/01 01:03:53;;;;;;;20.75;13.93;;;;;;;23.35;85.83;96740.09;5005656;28;20108;-72
2021/08/01 01:06:38;;;;;;;20.17;13.43;;;;;;;23.29;85.27;96728.63;5003708;28;20058;-72
2021/08/01 01:09:17;;;;;;;15.15;12.38;;;;;;;23.02;86.99;96727.59;5004282;28;20140;-74
2021/08/01 01:11:47;;;;;;;24.75;13.65;;;;;;;22.78;88.06;96712.38;5003411;28;20052;-74
2021/08/01 01:14:20;;;;;;;15.68;12.75;;;;;;;22.81;87.80;96719.91;5004042;28;20598;-74
2021/08/01 01:16:55;;;;;;;22.05;13.20;;;;;;;22.81;88.00;96729.16;5005287;28;20138;-75
2021/08/01 01:20:02;;;;;;;20.25;13.75;;;;;;;22.85;87.77;96723.38;5005283;28;20069;-74
2021/08/01 01:22:56;;;;;;;18.35;13.23;;;;;;;22.94;87.02;96737.59;5005513;28;20066;-74
2021/08/01 01:25:35;;;;;;;;;;;;;;;22.83;87.14;96731.53;5005103;28;20061;-75
2021/08/01 01:28:31;;;;;;;15.43;13.45;;;;;;;22.68;88.29;96724.81;5003828;28;19925;-73
2021/08/01 01:31:08;;;;;;;19.02;13.25;;;;;;;22.73;87.22;96732.72;5005139;28;20053;-72
2021/08/01 01:33:36;;;;;;;15.73;12.98;;;;;;;22.77;86.80;96722.06;5003964;28;20522;-72
2021/08/01 01:36:06;;;;;;;18.63;13.57;;;;;;;22.77;87.44;96716.41;4984005;28;20104;-75
2021/08/01 01:38:34;;;;;;;21.90;13.00;;;;;;;22.44;86.03;96665.94;5005151;28;20141;-73
2021/08/01 01:41:01;;;;;;;28.00;12.60;;;;;;;22.54;84.97;96663.22;5004925;28;20069;-75
2021/08/01 01:43:28;;;;;;;16.80;12.05;;;;;;;22.56;86.41;96703.84;5003451;28;20094;-72
2021/08/01 01:45:55;;;;;;;14.88;11.85;;;;;;;21.98;86.67;96621.59;5003667;28;20141;-74
2021/08/01 01:48:22;;;;;;;17.42;11.65;;;;;;;22.44;87.11;96693.38;5003474;28;20067;-74
2021/08/01 01:50:49;;;;;;;20.55;12.95;;;;;;;22.48;87.15;96717.41;5004848;28;20058;-73
2021/08/01 01:53:16;;;;;;;16.08;12.43;;;;;;;22.14;88.10;96686.34;5003302;28;20068;-74
2021/08/01 01:55:43;;;;;;;16.98;12.88;;;;;;;22.03;88.66;96680.28;5004564;28;20061;-72
2021/08/01 01:58:11;;;;;;;18.63;13.40;;;;;;;21.76;88.53;96648.94;5005021;28;20050;-75
2021/08/01 02:00:38;;;;;;;17.45;13.20;;;;;;;21.87;88.05;96700.16;5004306;28;20050;-74
2021/08/01 02:03:05;;;;;;;18.90;12.35;;;;;;;22.32;87.86;96714.72;5002928;28;20563;-74
2021/08/01 02:05:32;;;;;;;19.83;12.38;;;;;;;21.97;87.74;96665.16;5002714;28;20564;-75
2021/08/01 02:08:00;;;;;;;16.67;12.77;;;;;;;22.03;87.41;96673.84;5003146;28;20058;-74
2021/08/01 02:10:47;;;;;;;14.85;11.32;;;;;;;22.27;87.26;96729.41;5003226;28;20601;-74
2021/08/01 02:13:19;;;;;;;17.85;12.95;;;;;;;22.12;87.89;96722.69;5002791;28;20045;-74
2021/08/01 02:15:54;;;;;;;17.98;12.93;;;;;;;21.25;89.56;96748.78;5002217;28;20054;-74
2021/08/01 02:18:30;;;;;;;16.83;12.82;;;;;;;21.58;88.83;96653.53;5004302;28;20050;-75
2021/08/01 02:20:58;;;;;;;16.80;12.98;;;;;;;21.99;89.53;96724.72;5002475;28;20441;-74
2021/08/01 02:23:30;;;;;;;19.85;13.00;;;;;;;22.04;89.27;96726.19;5002683;28;20532;-75
2021/08/01 02:25:58;;;;;;;15.55;13.15;;;;;;;21.65;89.44;96699.22;5003980;28;20058;-75
2021/08/01 02:28:28;;;;;;;15.63;12.50;;;;;;;21.90;89.35;96733.09;5004190;28;20057;-74
2021/08/01 02:30:56;;;;;;;21.25;13.30;;;;;;;21.48;88.96;96669.56;5002576;28;20137;-74
2021/08/01 02:33:29;;;;;;;17.95;12.52;;;;;;;21.65;89.06;96673.84;5003697;28;20050;-73
2021/08/01 02:35:59;;;;;;;20.80;13.30;;;;;;;22.04;87.97;96738.25;5002449;28;20138;-75
2021/08/01 02:38:28;;;;;;;19.83;13.00;;;;;;;21.63;87.75;96661.44;5002504;28;20336;-73
2021/08/01 02:41:01;;;;;;;21.27;12.98;;;;;;;22.11;87.75;96737.25;5002538;28;20129;-75
2021/08/01 02:43:30;;;;;;;28.70;14.63;;;;;;;21.81;88.84;96740.66;5002748;28;20429;-73
2021/08/01 02:45:57;;;;;;;26.75;14.52;;;;;;;21.43;90.70;96703.97;5001879;28;20053;-74
2021/08/01 02:48:25;;;;;;;25.05;15.15;;;;;;;21.85;89.29;96735.66;5004137;28;20081;-75
2021/08/01 02:51:10;;;;;;;18.63;13.80;;;;;;;21.90;88.77;96729.47;5002792;28;20065;-75
2021/08/01 02:53:46;;;;;;;18.90;13.77;;;;;;;21.94;88.82;96733.75;5002558;28;20058;-75
2021/08/01 02:56:20;;;;;;;19.48;13.07;;;;;;;21.99;88.00;96736.00;5002018;28;20054;-75
2021/08/01 02:58:49;;;;;;;15.85;12.73;;;;;;;21.77;87.32;96694.84;5002568;28;20473;-76
2021/08/01 03:01:16;;;;;;;18.80;12.88;;;;;;;22.04;87.48;96732.63;5002066;28;20064;-72
2021/08/01 03:03:45;;;;;;;19.48;12.63;;;;;;;21.86;87.49;96703.44;5002096;28;20588;-74
2021/08/01 03:06:15;;;;;;;18.63;13.73;;;;;;;21.78;87.83;96697.19;5003511;28;20050;-75
2021/08/01 03:08:42;;;;;;;18.48;13.02;;;;;;;21.72;86.67;96687.72;5001886;28;20567;-73
2021/08/01 03:11:09;;;;;;;13.10;11.75;;;;;;;22.00;86.86;96742.44;5003454;28;20053;-75
2021/08/01 03:13:36;;;;;;;20.63;13.20;;;;;;;21.90;87.75;96750.00;5002213;28;20061;-74
2021/08/01 03:16:02;;;;;;;16.83;12.98;;;;;;;21.94;87.12;96739.38;5003367;28;20058;-76
2021/08/01 03:18:29;;;;;;;17.83;12.25;;;;;;;21.95;86.27;96740.19;5002332;28;20080;-71
2021/08/01 03:20:56;;;;;;;14.82;12.00;;;;;;;21.79;86.07;96693.16;5003267;28;20060;-76
2021/08/01 03:23:23;;;;;;;23.77;12.95;;;;;;;21.97;86.01;96744.13;5004397;28;20058;-76
2021/08/01 03:25:50;;;;;;;20.17;12.13;;;;;;;21.55;86.07;96683.44;5003369;28;20064;-74
2021/08/01 03:28:16;;;;;;;17.15;12.50;;;;;;;21.74;86.24;96730.34;5003590;28;20073;-76
2021/08/01 03:30:43;;;;;;;17.95;11.95;;;;;;;21.68;86.44;96718.06;5003220;28;20070;-77
2021/08/01 03:33:10;;;;;;;14.88;12.50;;;;;;;21.84;87.01;96743.38;5001712;28;20128;-74
2021/08/01 03:35:37;;;;;;;17.90;12.85;;;;;;;21.38;87.74;96715.78;5001657;28;20061;-72
2021/08/01 03:38:04;;;;;;;17.50;12.88;;;;;;;21.49;88.81;96716.25;5001799;28;20054;-77
2021/08/01 03:40:30;;;;;;;16.27;13.50;;;;;;;21.31;88.20;96656.81;5002083;28;20086;-71
2021/08/01 03:42:57;;;;;;;18.02;12.55;;;;;;;21.35;87.12;96674.41;5004011;28;20061;-76
2021/08/01 03:45:24;;;;;;;18.27;13.40;;;;;;;21.77;88.14;96754.84;5001816;28;20050;-75
2021/08/01 03:47:51;;;;;;;15.60;12.30;;;;;;;21.56;87.46;96696.28;5002034;28;20064;-78
2021/08/01 03:50:17;;;;;;;19.30;12.48;;;;;;;21.96;86.47;96736.91;5001560;28;20076;-77
2021/08/01 03:52:44;;;;;;;18.08;13.65;;;;;;;22.10;85.44;96733.63;5003260;28;20069;-75
2021/08/01 03:55:11;;;;;;;24.48;13.50;;;;;;;22.03;84.30;96702.84;5001264;28;20056;-76
2021/08/01 03:57:38;;;;;;;21.25;13.20;;;;;;;22.28;83.88;96739.47;5002524;28;20058;-76
2021/08/01 04:00:06;;;;;;;20.45;12.65;;;;;;;22.15;83.44;96696.38;5007118;28;20050;-76
2021/08/01 04:02:39;;;;;;;17.38;11.75;;;;;;;22.41;82.18;96712.00;5006885;28;20065;-74
2021/08/01 04:05:07;;;;;;;15.52;12.15;;;;;;;22.14;83.14;96689.16;5005240;28;20073;-75
2021/08/01 04:07:34;;;;;;;17.50;12.02;;;;;;;22.45;82.21;96723.97;5006925;28;20062;-74
2021/08/01 04:10:01;;;;;;;19.23;12.13;;;;;;;22.17;82.18;96713.66;5005292;28;20049;-75
2021/08/01 04:12:28;;;;;;;16.98;11.40;;;;;;;22.60;81.97;96735.59;5004930;28;20068;-73
2021/08/01 04:14:55;;;;;;;15.10;11.55;;;;;;;22.60;81.31;96734.78;5005062;28;20093;-78
2021/08/01 04:17:23;;;;;;;21.25;12.73;;;;;;;22.63;80.91;96702.81;5005016;28;20077;-76
2021/08/01 04:19:50;;;;;;;14.82;11.80;;;;;;;21.94;80.68;96589.91;5005264;28;20057;-76
2021/08/01 04:22:17;;;;;;;20.20;12.95;;;;;;;22.86;80.01;96725.75;5006282;28;20061;-76
2021/08/01 04:24:43;;;;;;;16.70;11.65;;;;;;;22.96;80.09;96735.09;5004805;28;20061;-76
2021/08/01 04:27:10;;;;;;;18.02;12.77;;;;;;;22.84;79.76;96710.53;5006194;28;20540;-74
2021/08/01 04:29:37;;;;;;;14.02;12.20;;;;;;;23.23;77.84;96732.47;5006903;28;20096;-75
2021/08/01 04:32:04;;;;;;;14.85;11.85;;;;;;;23.22;77.07;96717.53;5004801;28;20054;-76
2021/08/01 04:34:31;;;;;;;15.98;12.40;;;;;;;23.42;76.79;96749.13;5004747;28;20512;-75
2021/08/01 04:36:57;;;;;;;17.15;13.20;;;;;;;23.33;77.22;96731.31;5004907;28;20084;-75
2021/08/01 04:39:24;;;;;;;19.55;13.45;;;;;;;23.56;77.25;96756.25;5004814;28;20571;-75
2021/08/01 04:41:51;;;;;;;19.45;14.50;;;;;;;23.01;77.99;96681.63;5005838;28;20054;-73
2021/08/01 04:44:18;;;;;;;21.25;14.73;;;;;;;23.68;76.53;96741.22;5004631;28;20516;-75
2021/08/01 04:46:44;;;;;;;23.42;15.10;;;;;;;23.85;75.98;96742.59;5006110;28;20084;-76
2021/08/01 04:49:11;;;;;;;17.08;14.65;;;;;;;24.00;75.84;96752.09;5005962;28;20062;-76
2021/08/01 04:51:38;;;;;;;19.35;13.73;;;;;;;24.21;74.56;96745.59;5005618;28;20050;-77
2021/08/01 04:54:04;;;;;;;28.48;13.68;;;;;;;24.19;75.20;96742.41;5004013;28;20056;-75
2021/08/01 04:56:31;;;;;;;18.35;14.40;;;;;;;24.31;74.44;96721.69;5004449;28;20050;-76
2021/08/01 04:58:58;;;;;;;20.73;13.43;;;;;;;24.19;74.16;96708.44;5005561;28;20050;-75
2021/08/01 05:01:25;;;;;;;19.58;12.88;;;;;;;24.07;73.83;96661.25;5004121;28;20081;-77
2021/08/01 05:03:52;;;;;;;19.13;12.55;;;;;;;24.75;73.24;96740.06;5004574;28;20136;-76
2021/08/01 05:06:18;;;;;;;21.38;12.27;;;;;;;24.71;72.32;96701.78;5005541;28;20097;-75
2021/08/01 05:08:45;;;;;;;16.63;11.75;;;;;;;25.09;71.28;96736.91;5005053;28;20503;-77
2021/08/01 05:11:12;;;;;;;21.20;12.85;;;;;;;25.36;69.91;96732.47;5003270;28;20053;-75
2021/08/01 05:13:38;;;;;;;22.42;13.32;;;;;;;25.29;69.37;96708.06;5005475;28;20050;-74
2021/08/01 05:16:05;;;;;;;18.13;11.73;;;;;;;25.56;69.02;96735.59;5003512;28;20045;-74
2021/08/01 05:18:32;;;;;;;16.60;12.25;;;;;;;24.93;67.94;96603.22;5004164;28;20068;-73
2021/08/01 05:20:59;;;;;;;15.48;12.18;;;;;;;25.91;67.78;96745.28;5003745;28;20052;-76
2021/08/01 05:23:25;;;;;;;17.80;13.23;;;;;;;25.91;66.46;96733.91;5003722;28;20133;-74
2021/08/01 05:25:52;;;;;;;20.35;13.70;;;;;;;25.93;67.68;96746.34;5003939;28;20168;-78
2021/08/01 05:28:19;;;;;;;20.45;14.50;;;;;;;26.04;66.48;96731.66;5004186;28;20053;-76
2021/08/01 05:30:46;;;;;;;20.08;14.63;;;;;;;26.08;67.13;96743.66;5003491;28;20081;-74
2021/08/01 05:33:13;;;;;;;18.05;12.70;;;;;;;26.16;66.95;96722.94;5003507;28;20053;-74
2021/08/01 05:35:40;;;;;;;18.67;13.60;;;;;;;26.27;65.40;96688.34;5003856;28;20058;-75
2021/08/01 05:38:07;;;;;;;20.65;13.13;;;;;;;26.62;64.51;96703.53;5003481;28;20069;-74
2021/08/01 05:40:35;;;;;;;23.05;13.50;;;;;;;27.11;64.41;96740.78;5003423;28;20129;-74
2021/08/01 05:43:02;;;;;;;18.80;13.52;;;;;;;27.37;62.99;96741.84;5003286;28;20049;-72
2021/08/01 05:45:29;;;;;;;18.05;12.90;;;;;;;27.65;62.12;96740.28;5003866;28;20057;-75
2021/08/01 05:47:56;;;;;;;19.45;11.85;;;;;;;27.84;60.81;96753.06;5003917;28;20100;-73
2021/08/01 05:50:22;;;;;;;25.98;12.45;;;;;;;27.84;59.93;96713.19;5005033;28;20056;-73
2021/08/01 05:52:49;;;;;;;22.25;14.23;;;;;;;27.97;60.18;96724.28;5005092;28;20053;-73
2021/08/01 05:55:16;;;;;;;17.65;13.80;;;;;;;28.32;59.82;96735.72;5004795;28;20050;-71
2021/08/01 05:57:43;;;;;;;17.85;13.13;;;;;;;28.30;58.83;96704.06;5004899;28;20060;-72
2021/08/01 06:00:10;;;;;;;17.63;13.05;;;;;;;28.03;58.54;96634.81;5002894;28;20054;-72
2021/08/01 06:02:37;;;;;;;19.70;12.98;;;;;;;28.86;57.77;96730.03;5003234;28;20054;-73
2021/08/01 06:05:05;;;;;;;16.58;13.38;;;;;;;29.06;57.27;96740.66;5004381;28;20081;-72
2021/08/01 06:07:32;;;;;;;19.70;12.70;;;;;;;29.18;56.64;96728.13;5004686;28;20059;-73
2021/08/01 06:09:59;;;;;;;16.02;13.35;;;;;;;29.24;56.43;96720.41;5002667;28;20530;-72
2021/08/01 06:12:26;;;;;;;18.35;13.48;;;;;;;27.83;56.25;96511.53;5002492;28;20271;-72
2021/08/01 06:14:55;;;;;;;16.75;13.25;;;;;;;29.40;54.54;96688.41;5003977;28;20062;-74
2021/08/01 06:17:22;;;;;;;21.10;14.35;;;;;;;29.64;54.19;96714.59;5003966;28;20081;-74
2021/08/01 06:19:53;;;;;;;21.35;14.25;;;;;;;29.36;55.48;96682.91;5002633;28;20057;-74
2021/08/01 06:22:22;;;;;;;20.33;13.95;;;;;;;29.74;55.13;96730.28;5002174;28;20049;-72
2021/08/01 06:24:49;;;;;;;17.13;14.82;;;;;;;29.74;54.92;96724.56;5002921;28;20079;-72
2021/08/01 06:27:16;;;;;;;20.27;14.32;;;;;;;29.78;54.74;96715.78;5002437;28;20058;-74
2021/08/01 06:29:43;;;;;;;19.70;13.52;;;;;;;30.04;53.61;96714.44;5002589;28;20416;-76
2021/08/01 06:32:09;;;;;;;20.38;13.60;;;;;;;30.28;52.45;96706.34;5003955;28;20061;-74
2021/08/01 06:34:36;;;;;;;23.17;13.43;;;;;;;30.54;51.25;96709.88;5002478;28;20149;-74
2021/08/01 06:37:03;;;;;;;21.15;14.27;;;;;;;30.32;50.50;96649.72;5003796;28;20061;-73
2021/08/01 06:39:30;;;;;;;16.70;12.38;;;;;;;30.18;50.05;96707.81;5003642;28;20050;-74
2021/08/01 06:41:57;;;;;;;19.80;12.15;;;;;;;30.49;49.32;96701.28;5002272;28;20054;-73
2021/08/01 06:44:24;;;;;;;21.88;12.02;;;;;;;30.74;48.65;96694.66;5002410;28;20289;-74
2021/08/01 06:46:51;;;;;;;20.20;12.13;;;;;;;30.41;48.83;96652.38;5002095;28;20053;-72
2021/08/01 06:49:18;;;;;;;14.75;12.07;;;;;;;30.83;48.83;96695.25;5004110;28;20430;-75
2021/08/01 06:52:04;;;;;;;14.93;11.48;;;;;;;31.21;48.06;96696.69;5002222;28;20140;-75
2021/08/01 06:54:31;;;;;;;18.55;11.23;;;;;;;31.31;47.21;96694.41;5001695;28;20444;-74
2021/08/01 06:56:58;;;;;;;14.20;10.98;;;;;;;30.78;47.22;96638.78;5001982;28;20057;-76
2021/08/01 06:59:25;;;;;;;21.90;12.75;;;;;;;30.76;48.20;96692.88;5003226;28;20050;-76
2021/08/01 07:01:51;;;;;;;22.27;12.52;;;;;;;30.52;47.52;96646.72;5004016;28;20353;-75
2021/08/01 07:04:18;;;;;;;15.57;11.02;;;;;;;30.97;47.06;96687.00;5002366;28;20058;-74
2021/08/01 07:06:45;;;;;;;19.05;11.55;;;;;;;31.13;46.69;96692.75;5003476;28;20343;-73
2021/08/01 07:09:12;;;;;;;18.15;11.30;;;;;;;30.87;46.43;96675.75;5002419;28;20064;-73
2021/08/01 07:11:39;;;;;;;17.77;11.40;;;;;;;31.09;45.42;96689.38;5001984;28;20058;-75
2021/08/01 07:14:06;;;;;;;17.92;10.75;;;;;;;30.97;44.97;96639.09;5003044;28;20050;-75
2021/08/01 07:16:33;;;;;;;18.92;12.10;;;;;;;31.09;45.38;96695.09;5001638;28;20061;-70
2021/08/01 07:19:01;;;;;;;15.95;11.23;;;;;;;31.07;45.62;96691.16;5003821;28;20065;-69
2021/08/01 07:21:28;;;;;;;22.38;11.80;;;;;;;31.00;45.20;96658.09;5001732;28;20053;-70
2021/08/01 07:23:55;;;;;;;17.40;11.95;;;;;;;31.23;45.41;96684.72;5003090;28;20109;-69
2021/08/01 07:26:22;;;;;;;15.15;11.60;;;;;;;31.33;45.68;96681.13;5001761;28;20051;-67
2021/08/01 07:28:49;;;;;;;21.55;12.68;;;;;;;31.56;45.61;96670.50;5003329;28;20614;-67
2021/08/01 07:31:15;;;;;;;18.05;11.07;;;;;;;31.13;45.87;96603.22;5001300;28;20045;-68
2021/08/01 07:33:42;;;;;;;16.52;11.68;;;;;;;31.77;44.78;96655.41;5005428;28;20511;-68
2021/08/01 07:36:09;;;;;;;19.40;11.20;;;;;;;32.03;44.45;96669.47;5005797;28;20468;-68
2021/08/01 07:38:36;;;;;;;21.02;10.77;;;;;;;31.29;45.19;96594.69;5005619;28;20528;-69
2021/08/01 07:41:03;;;;;;;16.48;11.05;;;;;;;32.03;44.11;96663.75;5004834;28;20119;-68
2021/08/01 07:43:29;;;;;;;18.02;11.38;;;;;;;32.20;44.11;96667.41;4989166;28;20050;-69
2021/08/01 07:45:56;;;;;;;17.10;10.15;;;;;;;32.13;43.64;96636.38;5006977;28;20061;-69
2021/08/01 07:48:23;;;;;;;16.45;10.93;;;;;;;32.54;43.93;96663.16;5005600;28;20492;-68
2021/08/01 07:50:50;;;;;;;17.17;10.60;;;;;;;32.38;43.72;96629.56;5006558;28;20083;-68
2021/08/01 07:53:16;;;;;;;22.65;11.82;;;;;;;32.74;43.10;96657.09;5004857;28;20079;-68
2021/08/01 07:55:43;;;;;;;13.20;10.18;;;;;;;32.80;42.55;96640.63;5004787;28;20107;-70
2021/08/01 07:58:10;;;;;;;19.58;11.40;;;;;;;31.73;42.13;96474.41;5005119;28;20065;-71
2021/08/01 08:00:37;;;;;;;17.95;10.95;;;;;;;33.00;41.96;96659.63;5005140;28;20151;-70
2021/08/01 08:03:04;;;;;;;19.92;11.02;;;;;;;33.21;41.55;96652.22;5005189;28;20061;-69
2021/08/01 08:05:31;;;;;;;20.40;11.10;;;;;;;33.27;40.69;96662.38;5007293;28;20064;-68
2021/08/01 08:07:57;;;;;;;17.23;10.38;;;;;;;33.31;41.02;96662.84;5006441;28;20161;-69
2021/08/01 08:10:24;;;;;;;17.90;10.45;;;;;;;33.15;40.55;96629.28;5004885;28;20041;-70
2021/08/01 08:12:51;;;;;;;18.83;10.35;;;;;;;33.25;39.32;96606.75;5004983;28;20054;-67
2021/08/01 08:15:18;;;;;;;17.90;10.40;;;;;;;33.40;39.28;96642.44;5004720;28;20735;-70
2021/08/01 08:17:45;;;;;;;17.67;10.27;;;;;;;32.82;39.58;96563.41;5004793;28;20410;-70
2021/08/01 08:20:13;;;;;;;15.20;10.18;;;;;;;33.42;39.68;96653.41;5004480;28;20053;-69
2021/08/01 08:22:40;;;;;;;21.80;10.55;;;;;;;33.61;38.68;96655.09;5004217;28;20053;-67
2021/08/01 08:25:08;;;;;;;23.45;10.88;;;;;;;33.47;38.14;96601.66;5004405;28;20057;-69
2021/08/01 08:27:35;;;;;;;17.00;11.15;;;;;;;34.11;37.44;96648.19;5006424;28;20064;-70
2021/08/01 08:30:03;;;;;;;18.25;11.50;;;;;;;34.33;37.56;96654.53;5004537;28;20061;-70
2021/08/01 08:32:33;;;;;;;17.55;10.32;;;;;;;34.48;37.13;96648.34;5004497;28;20059;-68
2021/08/01 08:35:01;;;;;;;25.23;15.10;;;;;;;34.04;37.75;96622.88;5004383;28;20064;-69
2021/08/01 08:37:28;;;;;;;17.95;10.73;;;;;;;33.85;37.17;96567.38;5004595;28;20058;-68
2021/08/01 08:39:55;;;;;;;36.80;24.88;;;;;;;34.56;36.72;96655.06;5004564;28;20053;-69
2021/08/01 08:42:23;;;;;;;20.73;12.27;;;;;;;34.68;36.26;96645.00;5004280;28;20062;-69
2021/08/01 08:44:50;;;;;;;18.20;10.85;;;;;;;35.04;35.90;96637.75;5005951;28;20145;-69
2021/08/01 08:47:18;;;;;;;21.30;12.60;;;;;;;35.25;35.30;96638.78;5004460;28;20069;-70
2021/08/01 08:49:50;;;;;;;20.17;13.52;;;;;;;35.23;34.73;96575.19;5004379;28;20148;-69
2021/08/01 08:52:17;;;;;;;16.60;11.30;;;;;;;35.55;34.26;96636.53;5003755;28;20057;-69
2021/08/01 08:54:50;;;;;;;22.65;11.45;;;;;;;35.43;34.14;96583.28;5005438;28;20065;-68
2021/08/01 08:57:20;;;;;;;17.70;11.43;;;;;;;35.72;33.86;96625.53;5005545;28;20112;-68
2021/08/01 08:59:53;;;;;;;18.95;11.40;;;;;;;35.44;33.68;96579.06;5004397;28;20104;-70
2021/08/01 09:02:20;;;;;;;27.20;12.02;;;;;;;35.94;33.85;96612.84;5003857;28;20542;-70
2021/08/01 09:04:48;;;;;;;16.80;12.90;;;;;;;35.87;33.68;96622.94;5004097;28;20488;-70
2021/08/01 09:07:15;;;;;;;22.55;13.63;;;;;;;36.18;33.36;96625.03;5004180;28;20104;-70
2021/08/01 09:09:42;;;;;;;23.80;13.27;;;;;;;36.00;32.97;96547.19;5003607;28;20544;-69
2021/08/01 09:12:08;;;;;;;23.98;11.60;;;;;;;35.72;32.37;96616.09;5003647;28;20547;-69
2021/08/01 09:14:35;;;;;;;19.27;11.80;;;;;;;35.24;32.53;96582.47;5004725;28;20062;-69
2021/08/01 09:17:03;;;;;;;16.15;11.15;;;;;;;35.63;31.90;96548.06;5003542;28;20049;-69
2021/08/01 09:19:30;;;;;;;18.80;12.07;;;;;;;35.50;32.68;96599.94;5004697;28;20437;-69
2021/08/01 09:22:18;;;;;;;19.65;11.93;;;;;;;35.59;32.71;96607.38;5003416;28;20527;-71
2021/08/01 09:24:47;;;;;;;22.83;13.02;;;;;;;35.96;32.10;96613.88;5003832;28;20053;-69
2021/08/01 09:27:30;;;;;;;29.38;14.27;;;;;;;36.26;31.93;96594.16;5003348;28;20460;-70
2021/08/01 09:29:58;;;;;;;23.30;11.70;;;;;;;36.57;30.83;96597.53;5004135;28;20068;-70
2021/08/01 09:32:28;;;;;;;23.10;12.63;;;;;;;36.87;30.95;96592.19;5003277;28;20059;-70
2021/08/01 09:34:55;;;;;;;21.00;12.55;;;;;;;37.11;30.98;96578.28;5003736;28;20053;-70
2021/08/01 09:37:33;;;;;;;20.30;11.32;;;;;;;37.43;29.89;96593.34;5004595;28;20484;-70
2021/08/01 09:40:12;;;;;;;16.77;11.27;;;;;;;37.42;29.91;96585.19;5003410;28;20101;-69
2021/08/01 09:42:44;;;;;;;18.50;11.48;;;;;;;37.28;30.16;96586.59;5003623;28;20077;-70
2021/08/01 09:45:20;;;;;;;21.40;12.27;;;;;;;37.23;30.25;96590.41;5005013;28;20053;-70
2021/08/01 09:47:48;;;;;;;18.42;12.23;;;;;;;37.23;30.02;96596.19;5005334;28;20133;-70
2021/08/01 09:50:17;;;;;;;17.25;12.23;;;;;;;37.39;30.01;96590.00;5003096;28;20053;-70
2021/08/01 09:52:43;;;;;;;26.48;12.27;;;;;;;37.51;30.04;96590.50;5004748;28;20057;-70
2021/08/01 09:55:20;;;;;;;17.42;11.95;;;;;;;37.05;30.48;96579.72;5002699;28;20065;-69
2021/08/01 09:57:57;;;;;;;22.40;13.95;;;;;;;37.11;30.83;96583.28;5003069;28;20060;-69
2021/08/01 10:00:24;;;;;;;19.05;11.30;;;;;;;37.25;29.89;96581.94;5003017;28;20531;-70
2021/08/01 10:02:51;;;;;;;18.52;12.23;;;;;;;36.79;30.89;96550.91;5004783;28;20050;-71
2021/08/01 10:05:23;;;;;;;16.75;10.90;;;;;;;37.40;29.71;96556.84;5003161;28;20058;-71
2021/08/01 10:07:51;;;;;;;15.60;11.55;;;;;;;37.47;29.76;96569.84;5004463;28;20060;-69
2021/08/01 10:10:19;;;;;;;18.67;11.80;;;;;;;35.61;30.16;96294.22;5004107;28;20054;-71
2021/08/01 10:12:47;;;;;;;16.92;11.45;;;;;;;37.62;29.31;96570.00;5003523;28;20057;-70
2021/08/01 10:15:16;;;;;;;14.68;11.15;;;;;;;37.93;29.27;96571.84;5002545;28;20108;-70
2021/08/01 10:17:42;;;;;;;21.25;11.38;;;;;;;38.31;28.52;96570.06;5004527;28;20491;-70
2021/08/01 10:20:10;;;;;;;15.75;11.57;;;;;;;38.50;28.35;96573.47;5004876;28;20144;-69
2021/08/01 10:22:39;;;;;;;15.35;11.05;;;;;;;38.71;28.85;96565.53;5003176;28;20508;-69
2021/08/01 10:25:10;;;;;;;14.40;10.73;;;;;;;38.99;28.72;96568.41;5004055;28;20066;-70
2021/08/01 10:27:44;;;;;;;17.58;9.75;;;;;;;38.68;28.56;96484.81;5002804;28;20236;-70
2021/08/01 10:30:18;;;;;;;19.15;11.13;;;;;;;39.39;28.83;96559.25;5003760;28;20057;-70
2021/08/01 10:32:46;;;;;;;15.13;10.63;;;;;;;39.25;28.43;96530.41;5002191;28;20064;-69
2021/08/01 10:35:18;;;;;;;17.17;10.85;;;;;;;39.32;28.13;96548.41;5003691;28;20098;-71
2021/08/01 10:38:01;;;;;;;16.83;11.00;;;;;;;39.35;27.66;96518.28;5002720;28;20520;-71
2021/08/01 10:40:31;;;;;;;;;;;;;;;39.66;28.08;96537.28;5002970;28;20058;-70
2021/08/01 10:43:02;;;;;;;18.00;10.80;;;;;;;39.47;27.68;96513.69;5004041;28;19925;-69
2021/08/01 10:45:29;;;;;;;17.52;11.05;;;;;;;39.40;28.09;96531.78;5002674;28;20057;-71
2021/08/01 10:47:57;;;;;;;16.30;10.93;;;;;;;38.64;28.74;96490.16;5003829;28;20104;-70
2021/08/01 10:50:26;;;;;;;17.75;10.95;;;;;;;38.77;28.17;96504.53;5002250;28;20061;-71
2021/08/01 10:53:20;;;;;;;13.07;10.82;;;;;;;38.43;29.02;96538.69;5003632;28;20060;-70
2021/08/01 10:56:16;;;;;;;21.80;12.00;;;;;;;38.13;30.08;96527.66;5003958;28;20062;-71
2021/08/01 10:58:43;;;;;;;12.93;10.95;;;;;;;37.61;29.55;96481.69;4998449;28;20072;-70
2021/08/01 11:01:10;;;;;;;17.48;11.38;;;;;;;37.79;29.38;96529.91;5003609;28;20057;-71
2021/08/01 11:03:39;;;;;;;19.45;11.30;;;;;;;37.65;29.67;96522.59;5004060;28;20054;-73
2021/08/01 11:06:35;;;;;;;16.17;11.15;;;;;;;37.54;29.46;96520.00;5002040;28;20061;-70
2021/08/01 11:09:10;;;;;;;15.65;11.50;;;;;;;37.56;30.08;96526.00;5005175;28;20053;-73
2021/08/01 11:11:36;;;;;;;20.08;11.10;;;;;;;37.81;30.08;96515.66;5007563;28;20092;-67
2021/08/01 11:14:03;;;;;;;18.95;10.50;;;;;;;38.07;29.40;96511.81;5007082;28;20072;-71
2021/08/01 11:16:30;;;;;;;21.25;11.73;;;;;;;38.25;30.09;96505.00;5008096;28;20058;-72
2021/08/01 11:18:57;;;;;;;17.00;11.50;;;;;;;38.68;29.00;96526.09;5007522;28;20054;-70
2021/08/01 11:21:37;;;;;;;17.48;12.07;;;;;;;38.94;28.57;96520.06;5007334;28;20053;-73
2021/08/01 11:24:09;;;;;;;17.98;10.43;;;;;;;39.16;28.45;96513.59;5006240;28;20444;-72
2021/08/01 11:26:56;;;;;;;18.58;11.25;;;;;;;39.28;28.21;96507.44;5005921;28;20054;-70